Time;durP1;ratioP1;P1;durP2;ratioP2;P2;SDS_P1;SDS_P2;PMS_P1;PMS_P2;Temp;Humidity;BMP_temperature;BMP_pressure;BME280_temperature;BME280_humidity;BME280_pressure;Samples;Min_cycle;Max_cycle;Signal;HPM_P1;HPM_P2
2021/08/12 00:00:53;;;;;;;;;;;;;;;19.01;81.26;99720.69;5073074;28;857;-61
2021/08/12 00:03:19;;;;;;;;;;;;;;;19.02;81.23;99715.88;5072811;28;1012;-61
2021/08/12 00:05:46;;;;;;;;;;;;;;;18.94;81.19;99724.53;5072788;28;904;-61
2021/08/12 00:08:13;;;;;;;;;;;;;;;18.80;81.18;99716.75;5073034;28;833;-61
2021/08/12 00:10:40;;;;;;;;;;;;;;;18.67;81.42;99718.81;5072770;28;826;-61
2021/08/12 00:13:07;;;;;;;;;;;;;;;18.62;81.73;99719.44;5072648;28;822;-61
2021/08/12 00:15:33;;;;;;;;;;;;;;;18.61;81.46;99720.69;5072519;28;1450;-61
2021/08/12 00:17:59;;;;;;;;;;;;;;;18.63;81.79;99716.19;5072530;28;2003;-61
2021/08/12 00:20:25;;;;;;;;;;;;;;;18.71;81.79;99711.06;5072835;28;810;-61
2021/08/12 00:22:51;;;;;;;;;;;;;;;18.82;81.73;99719.06;5072538;28;819;-61
2021/08/12 00:25:18;;;;;;;;;;;;;;;18.90;81.65;99721.09;5072297;28;814;-61
2021/08/12 00:27:45;;;;;;;;;;;;;;;18.97;81.50;99712.44;5072401;28;866;-61
2021/08/12 00:30:12;;;;;;;;;;;;;;;19.08;81.34;99725.22;5072261;28;810;-62
2021/08/12 00:32:39;;;;;;;;;;;;;;;19.12;81.03;99723.84;5072353;28;881;-61
2021/08/12 00:35:06;;;;;;;;;;;;;;;19.10;80.93;99717.91;5072220;28;822;-61
2021/08/12 00:37:32;;;;;;;;;;;;;;;19.02;81.04;99725.03;5072121;28;1886;-61
2021/08/12 00:39:59;;;;;;;;;;;;;;;18.95;81.26;99723.31;5072201;28;845;-62
2021/08/12 00:42:26;;;;;;;;;;;;;;;18.94;81.42;99721.75;5072046;28;857;-62
2021/08/12 00:44:52;;;;;;;;;;;;;;;18.95;81.70;99723.31;5072107;28;822;-62
2021/08/12 00:47:19;;;;;;;;;;;;;;;18.95;81.73;99722.53;5072284;28;825;-61
2021/08/12 00:49:46;;;;;;;;;;;;;;;18.93;82.02;99727.81;5072027;28;871;-62
2021/08/12 00:52:13;;;;;;;;;;;;;;;18.92;82.16;99721.44;5072075;28;890;-62
2021/08/12 00:54:39;;;;;;;;;;;;;;;18.90;82.34;99726.72;5071934;28;810;-62
2021/08/12 00:57:07;;;;;;;;;;;;;;;18.85;82.42;99726.56;5072092;28;1945;-61
2021/08/12 00:59:36;;;;;;;;;;;;;;;18.80;82.82;99732.75;5071861;28;850;-62
2021/08/12 01:02:15;;;;;;;;;;;;;;;18.76;82.81;99730.06;5072408;28;767;-61
2021/08/12 01:04:45;;;;;;;;;;;;;;;18.73;82.99;99728.19;5072068;28;876;-62
2021/08/12 01:07:15;;;;;;;;;;;;;;;18.73;83.06;99733.78;5071702;28;850;-62
2021/08/12 01:10:00;;;;;;;;;;;;;;;18.70;82.91;99726.31;5071905;28;866;-62
2021/08/12 01:12:41;;;;;;;;;;;;;;;18.65;83.29;99724.91;5071651;28;850;-61
2021/08/12 01:15:10;;;;;;;;;;;;;;;18.62;83.22;99725.03;5071986;28;1073;-61
2021/08/12 01:17:43;;;;;;;;;;;;;;;18.56;83.54;99720.03;5071489;28;1902;-62
2021/08/12 01:20:24;;;;;;;;;;;;;;;18.55;83.68;99723.28;5071689;28;803;-61
2021/08/12 01:22:53;;;;;;;;;;;;;;;18.54;84.00;99728.13;5071562;28;897;-62
2021/08/12 01:25:22;;;;;;;;;;;;;;;18.55;84.02;99724.06;5071156;28;901;-62
2021/08/12 01:27:50;;;;;;;;;;;;;;;18.55;83.99;99720.50;5071585;28;818;-61
2021/08/12 01:30:23;;;;;;;;;;;;;;;18.50;83.97;99721.88;5071465;28;857;-61
2021/08/12 01:32:52;;;;;;;;;;;;;;;18.47;84.09;99722.00;5071520;28;853;-62
2021/08/12 01:35:20;;;;;;;;;;;;;;;18.43;84.08;99724.94;5071491;28;960;-61
2021/08/12 01:37:55;;;;;;;;;;;;;;;18.41;83.91;99718.22;5071363;28;1874;-62
2021/08/12 01:40:23;;;;;;;;;;;;;;;18.43;83.92;99724.94;5071722;28;818;-61
2021/08/12 01:42:50;;;;;;;;;;;;;;;18.43;83.59;99724.94;5071659;28;861;-61
2021/08/12 01:45:18;;;;;;;;;;;;;;;18.47;83.60;99719.97;5071614;28;818;-61
2021/08/12 01:47:46;;;;;;;;;;;;;;;18.46;83.13;99712.84;5071946;28;864;-61
2021/08/12 01:50:16;;;;;;;;;;;;;;;18.32;82.97;99711.34;5071467;28;869;-61
2021/08/12 01:52:45;;;;;;;;;;;;;;;18.14;82.96;99708.47;5071263;28;824;-61
2021/08/12 01:55:12;;;;;;;;;;;;;;;17.97;83.19;99712.72;5071220;28;813;-61
2021/08/12 01:57:40;;;;;;;;;;;;;;;17.83;83.21;99714.75;5071200;28;1885;-61
2021/08/12 02:00:09;;;;;;;;;;;;;;;17.71;83.59;99707.97;5071213;28;810;-61
2021/08/12 02:02:35;;;;;;;;;;;;;;;17.62;83.46;99715.50;5071229;28;814;-61
2021/08/12 02:05:02;;;;;;;;;;;;;;;17.57;83.63;99716.09;5071185;28;834;-61
2021/08/12 02:07:28;;;;;;;;;;;;;;;17.70;83.84;99706.41;5071124;28;813;-61
2021/08/12 02:09:55;;;;;;;;;;;;;;;17.88;83.40;99710.59;5071158;28;834;-61
2021/08/12 02:12:22;;;;;;;;;;;;;;;18.01;82.91;99711.34;5071117;28;914;-62
2021/08/12 02:14:48;;;;;;;;;;;;;;;18.07;82.16;99708.72;5071318;28;963;-61
2021/08/12 02:17:15;;;;;;;;;;;;;;;18.20;81.31;99706.63;5070636;28;1976;-62
2021/08/12 02:19:41;;;;;;;;;;;;;;;18.81;77.51;99712.69;5071074;28;885;-61
2021/08/12 02:22:15;;;;;;;;;;;;;;;19.38;73.82;99715.94;5070954;28;878;-62
2021/08/12 02:24:45;;;;;;;;;;;;;;;19.83;71.60;99708.03;5070978;28;821;-62
2021/08/12 02:27:17;;;;;;;;;;;;;;;20.12;70.01;99720.75;5070946;28;912;-61
2021/08/12 02:29:45;;;;;;;;;;;;;;;20.22;69.82;99710.31;5071523;28;814;-62
2021/08/12 02:32:13;;;;;;;;;;;;;;;20.21;69.49;99711.56;5071095;28;922;-62
2021/08/12 02:34:40;;;;;;;;;;;;;;;20.21;68.89;99709.53;5070976;28;869;-62
2021/08/12 02:37:10;;;;;;;;;;;;;;;20.38;67.72;99709.97;5073027;28;1882;-62
2021/08/12 02:39:38;;;;;;;;;;;;;;;20.58;66.91;99715.81;5074445;28;802;-63
2021/08/12 02:42:07;;;;;;;;;;;;;;;20.66;66.35;99715.50;5073128;28;1338;-61
2021/08/12 02:44:34;;;;;;;;;;;;;;;20.68;66.16;99713.78;5074343;28;881;-62
2021/08/12 02:47:03;;;;;;;;;;;;;;;20.72;65.83;99711.56;5074418;28;920;-62
2021/08/12 02:49:31;;;;;;;;;;;;;;;20.76;65.81;99720.59;5073015;28;1176;-62
2021/08/12 02:52:00;;;;;;;;;;;;;;;20.76;65.77;99725.41;5074181;28;822;-62
2021/08/12 02:54:27;;;;;;;;;;;;;;;20.74;65.71;99745.56;5074384;28;799;-62
2021/08/12 02:56:54;;;;;;;;;;;;;;;20.74;65.69;99727.94;5074041;28;1882;-62
2021/08/12 02:59:21;;;;;;;;;;;;;;;20.76;65.48;99733.84;5074163;28;896;-62
2021/08/12 03:01:49;;;;;;;;;;;;;;;20.77;65.27;99732.59;5074002;28;814;-61
2021/08/12 03:04:18;;;;;;;;;;;;;;;20.78;65.11;99734.94;5074120;28;802;-62
2021/08/12 03:06:46;;;;;;;;;;;;;;;20.80;64.47;99742.88;5073978;28;810;-62
2021/08/12 03:09:13;;;;;;;;;;;;;;;20.79;64.31;99742.09;5073897;28;818;-62
2021/08/12 03:11:40;;;;;;;;;;;;;;;20.83;64.04;99736.34;5073959;28;826;-62
2021/08/12 03:14:08;;;;;;;;;;;;;;;20.86;63.76;99740.97;5073891;28;912;-62
2021/08/12 03:16:37;;;;;;;;;;;;;;;20.87;63.49;99744.56;5073611;28;1905;-62
2021/08/12 03:19:04;;;;;;;;;;;;;;;20.86;63.67;99738.19;5072473;28;1274;-62
2021/08/12 03:21:31;;;;;;;;;;;;;;;20.85;63.50;99744.28;5072810;28;1298;-62
2021/08/12 03:24:01;;;;;;;;;;;;;;;20.84;63.57;99737.88;5074172;28;787;-62
2021/08/12 03:26:28;;;;;;;;;;;;;;;20.87;63.56;99744.56;5073604;28;870;-62
2021/08/12 03:28:55;;;;;;;;;;;;;;;20.91;63.30;99754.41;5073578;28;798;-62
2021/08/12 03:31:22;;;;;;;;;;;;;;;20.94;62.96;99756.25;5073665;28;873;-62
2021/08/12 03:33:49;;;;;;;;;;;;;;;20.93;62.96;99757.50;5073552;28;811;-62
2021/08/12 03:36:15;;;;;;;;;;;;;;;20.94;62.75;99767.47;5073600;28;822;-62
2021/08/12 03:38:42;;;;;;;;;;;;;;;20.97;62.21;99765.75;5073811;28;1894;-62
2021/08/12 03:41:08;;;;;;;;;;;;;;;20.98;61.98;99770.91;5073658;28;854;-62
2021/08/12 03:43:35;;;;;;;;;;;;;;;21.04;61.77;99779.47;5073570;28;948;-62
2021/08/12 03:46:01;;;;;;;;;;;;;;;21.05;61.83;99769.78;5073506;28;791;-62
2021/08/12 03:48:28;;;;;;;;;;;;;;;21.07;61.61;99781.31;5073030;28;849;-62
2021/08/12 03:50:54;;;;;;;;;;;;;;;21.07;61.33;99780.53;5073524;28;881;-62
2021/08/12 03:53:23;;;;;;;;;;;;;;;21.10;61.56;99785.19;5072964;28;889;-62
2021/08/12 03:55:52;;;;;;;;;;;;;;;21.09;61.52;99794.91;5073253;28;814;-62
2021/08/12 03:58:19;;;;;;;;;;;;;;;21.11;61.40;99784.72;5073057;28;1893;-62
2021/08/12 04:00:45;;;;;;;;;;;;;;;21.20;61.35;99786.72;5073220;28;822;-61
2021/08/12 04:03:11;;;;;;;;;;;;;;;21.05;61.81;99794.28;5073162;28;857;-61
2021/08/12 04:05:38;;;;;;;;;;;;;;;20.71;62.79;99799.09;5073151;28;861;-62
2021/08/12 04:08:06;;;;;;;;;;;;;;;20.52;63.45;99798.31;5073102;28;885;-62
2021/08/12 04:10:33;;;;;;;;;;;;;;;20.39;64.21;99801.31;5072776;28;850;-62
2021/08/12 04:12:59;;;;;;;;;;;;;;;20.34;64.14;99799.16;5072962;28;857;-62
2021/08/12 04:15:26;;;;;;;;;;;;;;;20.31;64.57;99800.88;5072838;28;1302;-61
2021/08/12 04:17:52;;;;;;;;;;;;;;;20.28;64.87;99806.63;5072852;28;1909;-61
2021/08/12 04:20:19;;;;;;;;;;;;;;;20.28;65.01;99815.06;5072589;28;1169;-61
2021/08/12 04:22:45;;;;;;;;;;;;;;;20.26;65.28;99809.91;5073002;28;854;-61
2021/08/12 04:25:12;;;;;;;;;;;;;;;20.27;65.34;99811.47;5072436;28;834;-61
2021/08/12 04:27:39;;;;;;;;;;;;;;;20.34;65.11;99816.75;5072396;28;810;-62
2021/08/12 04:30:06;;;;;;;;;;;;;;;20.45;64.95;99807.84;5072360;28;838;-61
2021/08/12 04:32:35;;;;;;;;;;;;;;;20.56;64.76;99810.19;5072576;28;941;-61
2021/08/12 04:35:05;;;;;;;;;;;;;;;20.72;64.78;99814.72;5072627;28;878;-61
2021/08/12 04:37:42;;;;;;;;;;;;;;;20.95;64.50;99816.81;5072090;28;1894;-61
2021/08/12 04:40:10;;;;;;;;;;;;;;;21.28;62.47;99813.22;5072241;28;826;-61
2021/08/12 04:42:38;;;;;;;;;;;;;;;21.86;60.68;99810.41;5072334;28;834;-62
2021/08/12 04:45:04;;;;;;;;;;;;;;;22.34;58.52;99816.75;5072180;28;794;-62
2021/08/12 04:47:31;;;;;;;;;;;;;;;22.77;57.34;99814.41;5072017;28;861;-62
2021/08/12 04:49:58;;;;;;;;;;;;;;;23.11;55.74;99805.72;5072029;28;873;-62
2021/08/12 04:52:25;;;;;;;;;;;;;;;23.40;54.49;99813.34;5071858;28;822;-62
2021/08/12 04:54:51;;;;;;;;;;;;;;;23.61;53.74;99816.97;5071920;28;806;-62
2021/08/12 04:57:17;;;;;;;;;;;;;;;23.77;52.64;99815.63;5071909;28;1898;-62
2021/08/12 04:59:43;;;;;;;;;;;;;;;23.92;52.17;99807.91;5071267;28;908;-62
2021/08/12 05:02:10;;;;;;;;;;;;;;;24.08;51.83;99809.34;5071818;28;844;-63
2021/08/12 05:04:37;;;;;;;;;;;;;;;24.23;50.17;99812.06;5071811;28;810;-62
2021/08/12 05:07:04;;;;;;;;;;;;;;;24.39;49.14;99816.38;5071733;28;1022;-62
2021/08/12 05:15:05;;;;;;;;;;;;;;;24.85;47.96;99824.00;5924692;22;1558;-62
2021/08/12 05:17:32;;;;;;;;;;;;;;;25.38;46.95;99825.44;5012509;28;1965;-62
2021/08/12 05:20:00;;;;;;;;;;;;;;;26.19;44.95;99828.13;5010826;28;1065;-62
2021/08/12 05:22:27;;;;;;;;;;;;;;;27.16;42.98;99827.72;5012191;28;889;-62
2021/08/12 05:24:54;;;;;;;;;;;;;;;27.97;40.95;99829.84;5012104;28;889;-62
2021/08/12 05:27:20;;;;;;;;;;;;;;;28.55;39.79;99829.81;5012405;28;908;-62
2021/08/12 05:29:47;;;;;;;;;;;;;;;28.87;38.67;99832.16;5012125;28;905;-62
2021/08/12 05:32:13;;;;;;;;;;;;;;;29.15;37.94;99834.78;5012344;28;846;-62
2021/08/12 05:34:40;;;;;;;;;;;;;;;29.37;37.59;99839.47;5011992;28;830;-62
2021/08/12 05:37:07;;;;;;;;;;;;;;;29.41;37.03;99845.66;5010797;28;1985;-62
2021/08/12 05:39:33;;;;;;;;;;;;;;;29.25;37.28;99850.22;5012229;28;779;-62
2021/08/12 05:42:00;;;;;;;;;;;;;;;29.02;37.34;99855.31;5011807;28;869;-63
2021/08/12 05:44:27;;;;;;;;;;;;;;;29.21;37.58;99854.63;5011668;28;850;-62
2021/08/12 05:46:53;;;;;;;;;;;;;;;29.59;36.31;99858.38;5011751;28;898;-62
2021/08/12 05:49:23;;;;;;;;;;;;;;;29.90;35.77;99856.25;5011728;28;873;-62
2021/08/12 05:51:50;;;;;;;;;;;;;;;30.29;35.50;99861.47;5011896;28;864;-62
2021/08/12 05:54:17;;;;;;;;;;;;;;;30.28;35.51;99859.16;5011955;28;818;-62
2021/08/12 05:56:44;;;;;;;;;;;;;;;30.13;35.21;99857.53;5011787;28;1975;-61
2021/08/12 05:59:10;;;;;;;;;;;;;;;30.07;35.63;99861.75;5012097;28;882;-61
2021/08/12 06:01:36;;;;;;;;;;;;;;;30.12;35.90;99861.66;5011855;28;877;-62
2021/08/12 06:04:04;;;;;;;;;;;;;;;30.52;34.89;99859.06;5011923;28;914;-61
2021/08/12 06:06:31;;;;;;;;;;;;;;;31.17;33.62;99855.47;5011831;28;834;-62
2021/08/12 06:08:58;;;;;;;;;;;;;;;31.78;32.31;99861.38;5011795;28;692;-61
2021/08/12 06:11:24;;;;;;;;;;;;;;;32.40;31.28;99865.81;5014222;28;869;-62
2021/08/12 06:13:50;;;;;;;;;;;;;;;32.74;30.51;99863.72;5015160;28;959;-62
2021/08/12 06:16:17;;;;;;;;;;;;;;;33.05;30.25;99866.09;5038440;28;1237;-62
2021/08/12 06:18:43;;;;;;;;;;;;;;;33.21;29.75;99870.66;5054829;28;1914;-62
2021/08/12 06:21:10;;;;;;;;;;;;;;;33.00;29.88;99872.75;5055081;28;810;-62
2021/08/12 06:23:37;;;;;;;;;;;;;;;33.08;30.11;99868.63;5054722;28;914;-62
2021/08/12 06:26:04;;;;;;;;;;;;;;;33.24;29.73;99872.38;5054857;28;826;-62
2021/08/12 06:28:30;;;;;;;;;;;;;;;33.62;29.06;99880.53;5054682;28;886;-63
2021/08/12 06:30:57;;;;;;;;;;;;;;;33.70;29.25;99871.97;5054710;28;1036;-62
2021/08/12 06:33:24;;;;;;;;;;;;;;;34.01;28.74;99870.03;5054709;28;893;-62
2021/08/12 06:35:51;;;;;;;;;;;;;;;34.25;27.79;99880.31;5054500;28;854;-63
2021/08/12 06:38:18;;;;;;;;;;;;;;;34.16;28.34;99881.63;5054518;28;2366;-62
2021/08/12 06:40:45;;;;;;;;;;;;;;;34.36;27.80;99882.84;5054483;28;810;-62
2021/08/12 06:43:10;;;;;;;;;;;;;;;34.70;27.49;99872.44;5054380;28;810;-62
2021/08/12 06:45:37;;;;;;;;;;;;;;;35.22;26.08;99875.19;5054395;28;870;-63
2021/08/12 06:48:04;;;;;;;;;;;;;;;35.60;26.41;99878.00;5053264;28;822;-63
2021/08/12 06:50:30;;;;;;;;;;;;;;;35.89;25.78;99880.63;5054260;28;814;-62
2021/08/12 06:52:57;;;;;;;;;;;;;;;36.33;24.35;99872.44;5054332;28;815;-62
2021/08/12 06:55:23;;;;;;;;;;;;;;;36.76;24.84;99876.25;5054228;28;834;-62
2021/08/12 06:57:50;;;;;;;;;;;;;;;37.04;23.70;99882.94;5052782;28;1939;-63
2021/08/12 07:00:17;;;;;;;;;;;;;;;36.49;24.25;99881.00;5054137;28;854;-63
2021/08/12 07:02:44;;;;;;;;;;;;;;;36.15;24.83;99888.84;5054165;28;869;-62
2021/08/12 07:05:11;;;;;;;;;;;;;;;36.93;24.18;99887.06;5054352;28;806;-62
2021/08/12 07:07:37;;;;;;;;;;;;;;;37.31;23.37;99882.38;5053985;28;857;-62
2021/08/12 07:10:04;;;;;;;;;;;;;;;37.45;22.77;99888.59;5054034;28;810;-63
2021/08/12 07:12:31;;;;;;;;;;;;;;;37.08;23.69;99885.44;5053791;28;837;-62
2021/08/12 07:14:58;;;;;;;;;;;;;;;36.79;23.80;99883.72;5053965;28;1241;-63
2021/08/12 07:17:28;;;;;;;;;;;;;;;36.87;24.37;99885.78;5053780;28;1973;-62
2021/08/12 07:19:55;;;;;;;;;;;;;;;37.40;23.46;99882.47;5053798;28;834;-63
2021/08/12 07:22:22;;;;;;;;;;;;;;;37.72;23.21;99880.09;5053018;28;846;-62
2021/08/12 07:24:48;;;;;;;;;;;;;;;38.09;22.88;99878.16;5053839;28;794;-62
2021/08/12 07:27:14;;;;;;;;;;;;;;;37.27;23.14;99879.91;5053572;28;810;-63
2021/08/12 07:29:41;;;;;;;;;;;;;;;36.97;23.92;99880.91;5053571;28;933;-63
2021/08/12 07:32:07;;;;;;;;;;;;;;;36.80;23.82;99898.88;5053613;28;810;-62
2021/08/12 07:34:34;;;;;;;;;;;;;;;36.59;24.76;99887.66;5053493;28;814;-63
2021/08/12 07:37:01;;;;;;;;;;;;;;;37.12;23.74;99889.44;5053503;28;1950;-63
2021/08/12 07:39:27;;;;;;;;;;;;;;;37.06;24.19;99903.28;5053537;28;908;-63
2021/08/12 07:41:54;;;;;;;;;;;;;;;37.30;23.76;99898.91;5053265;28;864;-62
2021/08/12 07:44:20;;;;;;;;;;;;;;;37.84;23.18;99901.28;5053351;28;817;-63
2021/08/12 07:46:47;;;;;;;;;;;;;;;38.17;22.74;99904.78;5053350;28;885;-63
2021/08/12 07:49:13;;;;;;;;;;;;;;;38.43;22.80;99913.31;5053224;28;802;-63
2021/08/12 07:51:40;;;;;;;;;;;;;;;38.36;22.49;99907.03;5053239;28;880;-63
2021/08/12 07:54:07;;;;;;;;;;;;;;;38.62;22.27;99892.47;5053139;28;798;-63
2021/08/12 07:56:34;;;;;;;;;;;;;;;38.57;22.25;99897.94;5053093;28;881;-63
2021/08/12 07:59:01;;;;;;;;;;;;;;;38.34;22.39;99889.53;5053022;28;1948;-63
2021/08/12 08:01:27;;;;;;;;;;;;;;;39.00;22.04;99891.94;5051667;28;1231;-63
2021/08/12 08:03:56;;;;;;;;;;;;;;;39.10;21.69;99880.41;5053066;28;860;-63
2021/08/12 08:06:23;;;;;;;;;;;;;;;38.99;22.12;99881.75;5052874;28;810;-63
2021/08/12 08:08:49;;;;;;;;;;;;;;;39.29;21.68;99877.56;5052915;28;908;-62
2021/08/12 08:11:17;;;;;;;;;;;;;;;39.20;21.83;99884.88;5052774;28;814;-63
2021/08/12 08:13:44;;;;;;;;;;;;;;;38.73;21.98;99880.38;5051393;28;1475;-64
2021/08/12 08:16:11;;;;;;;;;;;;;;;38.66;22.40;99890.69;5052441;28;1285;-63
2021/08/12 08:18:38;;;;;;;;;;;;;;;38.58;21.70;99884.28;5052602;28;1917;-63
2021/08/12 08:21:04;;;;;;;;;;;;;;;38.44;22.41;99895.41;5052595;28;858;-63
2021/08/12 08:23:31;;;;;;;;;;;;;;;38.14;22.30;99887.91;5051402;28;821;-63
2021/08/12 08:25:58;;;;;;;;;;;;;;;38.20;22.41;99882.63;5052444;28;861;-63
2021/08/12 08:28:24;;;;;;;;;;;;;;;38.63;21.92;99873.81;5052501;28;802;-62
2021/08/12 08:30:51;;;;;;;;;;;;;;;37.95;22.27;99879.84;5052389;28;802;-63
2021/08/12 08:33:18;;;;;;;;;;;;;;;38.30;22.53;99876.91;5052070;28;857;-64
2021/08/12 08:35:45;;;;;;;;;;;;;;;38.69;22.35;99868.53;5051939;28;889;-63
2021/08/12 08:38:11;;;;;;;;;;;;;;;39.24;21.89;99875.72;5052556;28;1890;-64
2021/08/12 08:40:38;;;;;;;;;;;;;;;39.56;21.34;99876.72;5052329;28;888;-63
2021/08/12 08:43:05;;;;;;;;;;;;;;;39.80;20.98;99883.63;5052055;28;869;-63
2021/08/12 08:45:31;;;;;;;;;;;;;;;39.65;21.21;99866.53;5052175;28;909;-63
2021/08/12 08:48:00;;;;;;;;;;;;;;;38.31;21.70;99882.09;5052101;28;994;-64
2021/08/12 08:50:32;;;;;;;;;;;;;;;37.53;23.04;99878.50;5052133;28;837;-63
2021/08/12 08:52:59;;;;;;;;;;;;;;;38.15;22.53;99889.41;5051987;28;921;-63
2021/08/12 08:55:26;;;;;;;;;;;;;;;38.72;21.90;99881.75;5052115;28;869;-63
2021/08/12 08:57:53;;;;;;;;;;;;;;;38.84;21.66;99879.09;5052015;28;1894;-62
2021/08/12 09:00:21;;;;;;;;;;;;;;;38.26;22.35;99888.91;5051964;28;880;-64
2021/08/12 09:02:49;;;;;;;;;;;;;;;37.90;22.60;99875.09;5051891;28;793;-63
2021/08/12 09:05:16;;;;;;;;;;;;;;;37.92;22.50;99878.91;5051818;28;841;-64
2021/08/12 09:07:44;;;;;;;;;;;;;;;37.69;23.49;99889.94;5051771;28;802;-63
2021/08/12 09:10:11;;;;;;;;;;;;;;;37.83;23.31;99876.69;5051777;28;801;-63
2021/08/12 09:12:40;;;;;;;;;;;;;;;38.19;22.24;99876.09;5051722;28;798;-63
2021/08/12 09:15:12;;;;;;;;;;;;;;;38.50;22.75;99869.19;5051715;28;1217;-62
2021/08/12 09:17:40;;;;;;;;;;;;;;;38.67;22.22;99872.00;5051748;28;1914;-64
2021/08/12 09:20:07;;;;;;;;;;;;;;;38.05;22.74;99880.72;5051640;28;818;-64
2021/08/12 09:22:49;;;;;;;;;;;;;;;37.72;22.53;99880.84;5051639;28;948;-63
2021/08/12 09:25:17;;;;;;;;;;;;;;;37.80;22.73;99875.00;5051648;28;826;-63
2021/08/12 09:27:44;;;;;;;;;;;;;;;37.36;22.63;99887.91;5051522;28;864;-63
2021/08/12 09:30:11;;;;;;;;;;;;;;;37.32;23.05;99875.25;5051486;28;806;-64
2021/08/12 09:32:46;;;;;;;;;;;;;;;37.38;22.76;99881.53;5051488;28;881;-63
2021/08/12 09:35:13;;;;;;;;;;;;;;;37.08;23.05;99874.66;5051468;28;817;-63
2021/08/12 09:37:40;;;;;;;;;;;;;;;37.05;23.08;99884.50;5051364;28;1893;-63
2021/08/12 09:40:07;;;;;;;;;;;;;;;37.05;23.61;99886.63;5051456;28;814;-63
2021/08/12 09:42:54;;;;;;;;;;;;;;;37.03;23.94;99890.06;5050049;28;2287;-63
2021/08/12 09:45:24;;;;;;;;;;;;;;;36.94;23.50;99890.72;5052493;28;841;-63
2021/08/12 09:47:52;;;;;;;;;;;;;;;36.81;23.88;99885.25;5054200;28;1260;-63
2021/08/12 09:50:29;;;;;;;;;;;;;;;36.69;24.32;99885.69;5055432;28;862;-63
2021/08/12 09:52:56;;;;;;;;;;;;;;;37.05;23.65;99898.91;5055487;28;834;-63
2021/08/12 09:55:23;;;;;;;;;;;;;;;36.91;23.71;99886.13;5055330;28;892;-63
2021/08/12 09:57:51;;;;;;;;;;;;;;;36.37;23.99;99898.69;5055321;28;1894;-63
2021/08/12 10:00:30;;;;;;;;;;;;;;;36.04;24.78;99891.31;5055238;28;873;-62
2021/08/12 10:02:57;;;;;;;;;;;;;;;35.56;24.70;99887.00;5055240;28;786;-63
2021/08/12 10:05:24;;;;;;;;;;;;;;;35.17;24.19;99891.28;5055184;28;806;-63
2021/08/12 10:08:00;;;;;;;;;;;;;;;34.89;25.47;99883.56;5055206;28;853;-62
2021/08/12 10:10:28;;;;;;;;;;;;;;;34.81;25.30;99886.41;5055122;28;810;-63
2021/08/12 10:12:56;;;;;;;;;;;;;;;34.83;26.38;99883.75;5055656;28;775;-63
2021/08/12 10:15:26;;;;;;;;;;;;;;;34.72;25.33;99882.00;5055340;28;1206;-63
2021/08/12 10:17:54;;;;;;;;;;;;;;;34.32;25.99;99888.16;5054971;28;2044;-63
2021/08/12 10:20:23;;;;;;;;;;;;;;;34.41;26.14;99891.84;5054969;28;864;-63
2021/08/12 10:22:50;;;;;;;;;;;;;;;34.68;26.32;99878.75;5054884;28;881;-64
2021/08/12 10:25:18;;;;;;;;;;;;;;;34.86;25.71;99882.59;5053432;28;1418;-63
2021/08/12 10:27:46;;;;;;;;;;;;;;;34.99;25.61;99887.38;5054823;28;882;-64
2021/08/12 10:30:14;;;;;;;;;;;;;;;34.92;25.94;99891.78;5054710;28;940;-64
2021/08/12 10:32:45;;;;;;;;;;;;;;;35.27;25.13;99895.09;5054723;28;846;-63
2021/08/12 10:35:11;;;;;;;;;;;;;;;35.81;25.76;99889.31;5054680;28;858;-62
2021/08/12 10:37:38;;;;;;;;;;;;;;;35.93;24.20;99892.53;5054556;28;1954;-64
2021/08/12 10:40:07;;;;;;;;;;;;;;;35.96;24.51;99880.63;5054436;28;863;-63
2021/08/12 10:42:34;;;;;;;;;;;;;;;35.77;25.03;99886.81;5054218;28;1450;-64
2021/08/12 10:45:01;;;;;;;;;;;;;;;35.72;25.09;99889.88;5054506;28;866;-63
2021/08/12 10:47:57;;;;;;;;;;;;;;;36.08;25.38;99883.06;5054425;28;881;-63
2021/08/12 10:50:26;;;;;;;;;;;;;;;36.31;24.24;99883.75;5037031;28;1447;-63
2021/08/12 10:53:07;;;;;;;;;;;;;;;35.89;25.02;99886.41;5054255;28;960;-63
2021/08/12 10:55:40;;;;;;;;;;;;;;;35.91;24.76;99875.88;5054273;28;889;-62
2021/08/12 10:58:22;;;;;;;;;;;;;;;35.94;24.76;99876.81;5053156;28;1939;-63
2021/08/12 11:00:49;;;;;;;;;;;;;;;36.24;24.42;99881.69;5054136;28;877;-64
2021/08/12 11:03:36;;;;;;;;;;;;;;;36.34;23.78;99876.09;5054134;28;862;-63
2021/08/12 11:06:02;;;;;;;;;;;;;;;36.24;23.91;99878.06;5053999;28;1663;-64
2021/08/12 11:08:48;;;;;;;;;;;;;;;36.26;24.34;99872.50;5052643;28;1291;-63
2021/08/12 11:11:17;;;;;;;;;;;;;;;36.33;23.86;99863.81;5053965;28;920;-63
2021/08/12 11:13:43;;;;;;;;;;;;;;;36.20;24.28;99872.69;5053952;28;1666;-63
2021/08/12 11:16:10;;;;;;;;;;;;;;;36.14;24.50;99877.91;5053540;28;1245;-64
2021/08/12 11:18:49;;;;;;;;;;;;;;;36.31;23.89;99863.63;5054018;28;2304;-63
2021/08/12 11:21:30;;;;;;;;;;;;;;;36.70;23.30;99872.06;5053825;28;794;-63
2021/08/12 11:24:18;;;;;;;;;;;;;;;36.77;23.24;99877.03;5053726;28;818;-63
2021/08/12 11:26:48;;;;;;;;;;;;;;;36.87;23.92;99877.13;5053378;28;2097;-63
2021/08/12 11:29:29;;;;;;;;;;;;;;;36.88;23.40;99873.69;5053967;28;920;-64
2021/08/12 11:32:03;;;;;;;;;;;;;;;37.06;22.68;99851.44;5052328;28;1281;-63
2021/08/12 11:34:47;;;;;;;;;;;;;;;36.30;23.86;99858.47;5053738;28;830;-64
2021/08/12 11:37:18;;;;;;;;;;;;;;;36.19;23.40;99856.81;5053437;28;1943;-63
2021/08/12 11:39:52;;;;;;;;;;;;;;;36.49;23.61;99855.09;5053762;28;869;-62
2021/08/12 11:42:22;;;;;;;;;;;;;;;36.86;22.41;99861.22;5053493;28;893;-62
2021/08/12 11:44:49;;;;;;;;;;;;;;;36.73;22.29;99857.28;5053627;28;806;-64
2021/08/12 11:47:17;;;;;;;;;;;;;;;36.82;22.26;99852.22;5053309;28;918;-64
2021/08/12 11:49:47;;;;;;;;;;;;;;;37.02;22.64;99853.97;5053180;28;844;-64
2021/08/12 11:52:35;;;;;;;;;;;;;;;37.15;22.82;99845.06;5053418;28;870;-64
2021/08/12 11:55:07;;;;;;;;;;;;;;;37.49;21.74;99842.81;5053244;28;1120;-63
2021/08/12 11:57:44;;;;;;;;;;;;;;;37.69;21.33;99849.56;5053817;28;1977;-63
2021/08/12 12:00:17;;;;;;;;;;;;;;;36.71;22.62;99848.47;5053081;28;814;-64
2021/08/12 12:02:51;;;;;;;;;;;;;;;36.81;23.35;99844.94;5052958;28;889;-64
2021/08/12 12:05:22;;;;;;;;;;;;;;;35.69;23.75;99859.44;5053146;28;799;-64
2021/08/12 12:07:52;;;;;;;;;;;;;;;34.64;25.00;99849.66;5052557;28;937;-63
2021/08/12 12:10:25;;;;;;;;;;;;;;;33.90;26.09;99853.94;5052877;28;842;-63
2021/08/12 12:12:52;;;;;;;;;;;;;;;34.12;26.19;99846.81;5052985;28;898;-63
2021/08/12 12:15:31;;;;;;;;;;;;;;;35.71;24.45;99848.13;5052445;28;1163;-63
2021/08/12 12:17:57;;;;;;;;;;;;;;;37.02;23.39;99838.81;5052630;28;1910;-62
2021/08/12 12:20:25;;;;;;;;;;;;;;;37.23;21.47;99838.47;5052742;28;822;-63
2021/08/12 12:23:10;;;;;;;;;;;;;;;36.81;22.59;99839.94;5052590;28;802;-63
2021/08/12 12:25:38;;;;;;;;;;;;;;;36.90;22.41;99841.41;5052624;28;830;-63
2021/08/12 12:28:05;;;;;;;;;;;;;;;36.72;22.24;99844.25;5052565;28;881;-63
2021/08/12 12:30:33;;;;;;;;;;;;;;;36.75;22.67;99843.06;5052382;28;869;-63
2021/08/12 12:33:02;;;;;;;;;;;;;;;36.64;22.20;99849.28;5052485;28;818;-62
2021/08/12 12:35:30;;;;;;;;;;;;;;;37.43;21.81;99840.19;5052353;28;826;-63
2021/08/12 12:37:58;;;;;;;;;;;;;;;38.46;20.67;99826.28;5052124;28;1885;-63
2021/08/12 12:40:26;;;;;;;;;;;;;;;39.29;19.96;99830.56;5052256;28;858;-63
2021/08/12 12:42:53;;;;;;;;;;;;;;;39.06;20.15;99842.53;5052346;28;885;-63
2021/08/12 12:45:20;;;;;;;;;;;;;;;37.93;20.80;99839.28;5052115;28;881;-64
2021/08/12 12:47:47;;;;;;;;;;;;;;;36.60;21.85;99843.13;5052162;28;802;-63
2021/08/12 12:50:17;;;;;;;;;;;;;;;36.19;25.55;99859.69;5050965;28;849;-63
2021/08/12 12:52:53;;;;;;;;;;;;;;;36.45;25.93;99846.88;5052098;28;822;-62
2021/08/12 12:55:21;;;;;;;;;;;;;;;36.81;26.54;99850.69;5052277;28;881;-63
2021/08/12 12:57:49;;;;;;;;;;;;;;;37.08;26.22;99833.56;5052040;28;1943;-63
2021/08/12 13:00:26;;;;;;;;;;;;;;;36.84;25.95;99840.88;5052016;28;846;-65
2021/08/12 13:02:54;;;;;;;;;;;;;;;35.24;27.54;99846.66;5051936;28;908;-64
2021/08/12 13:05:22;;;;;;;;;;;;;;;33.86;29.97;99847.78;5051914;28;883;-63
2021/08/12 13:07:49;;;;;;;;;;;;;;;33.47;30.94;99843.91;5051723;28;864;-63
2021/08/12 13:10:24;;;;;;;;;;;;;;;33.54;31.72;99859.63;5051792;28;838;-65
2021/08/12 13:13:01;;;;;;;;;;;;;;;34.68;30.18;99866.50;5052037;28;818;-63
2021/08/12 13:15:28;;;;;;;;;;;;;;;35.08;29.51;99863.06;5051459;28;1216;-63
2021/08/12 13:18:02;;;;;;;;;;;;;;;34.17;30.38;99860.19;5051583;28;1973;-64